Terminal Aerodrome Forecast
Issued by NWS

Home | Current Version | Previous Version | Text Only | Print | Product List | Glossary On
Versions: 1 2 3 4 5 6 7 8 9 10 11 12 13 14
000
FTUS42 TJSJ 272300
TAFJSJ
TAF
TJSJ 272333Z 2800/2824 06014G20KT P6SM FEW028
     FM280800 09010KT P6SM VCSH SCT025 SCT040
     FM281500 08015G25KT P6SM SCT025 SCT070=

USA.gov is the U.S. government's official web portal to all federal, state and local government web resources and services.